createdAt,value
2017-10-18T00:00:14.187Z,12.96
2017-10-18T00:02:42.637Z,12.95
2017-10-18T00:05:11.105Z,12.92
2017-10-18T00:07:40.350Z,12.84
2017-10-18T00:10:08.809Z,12.85
2017-10-18T00:12:37.313Z,12.81
2017-10-18T00:15:05.782Z,12.78
2017-10-18T00:17:34.229Z,12.76
2017-10-18T00:20:03.469Z,12.73
2017-10-18T00:22:31.927Z,12.72
2017-10-18T00:25:00.389Z,12.69
2017-10-18T00:27:29.597Z,12.67
2017-10-18T00:29:58.929Z,12.62
2017-10-18T00:32:27.374Z,12.56
2017-10-18T00:34:56.590Z,12.55
2017-10-18T00:37:25.053Z,12.56
2017-10-18T00:39:54.285Z,12.56
2017-10-18T00:42:22.752Z,12.55
2017-10-18T00:44:51.258Z,12.55
2017-10-18T00:47:19.725Z,12.55
2017-10-18T00:49:48.172Z,12.51
2017-10-18T00:52:16.641Z,12.49
2017-10-18T00:54:45.195Z,12.52
2017-10-18T00:57:13.666Z,12.49
2017-10-18T00:59:42.149Z,12.47
2017-10-18T01:02:10.634Z,12.44
2017-10-18T01:04:39.120Z,12.42
2017-10-18T01:07:07.570Z,12.37
2017-10-18T01:09:36.049Z,12.32
2017-10-18T01:12:05.263Z,12.31
2017-10-18T01:14:33.758Z,12.34
2017-10-18T01:17:02.214Z,12.31
2017-10-18T01:19:31.458Z,12.29
2017-10-18T01:21:59.897Z,12.29
2017-10-18T01:24:29.244Z,12.27
2017-10-18T01:26:57.707Z,12.27
2017-10-18T01:29:26.297Z,12.22
2017-10-18T01:31:54.741Z,12.18
2017-10-18T01:34:23.974Z,12.12
2017-10-18T01:36:52.417Z,12.13
2017-10-18T01:39:21.649Z,12.08
2017-10-18T01:41:50.105Z,12.09
2017-10-18T01:44:19.339Z,12.11
2017-10-18T01:46:47.811Z,12.07
2017-10-18T01:49:16.265Z,12.01
2017-10-18T01:51:45.598Z,11.97
2017-10-18T01:54:14.035Z,11.96
2017-10-18T01:56:43.265Z,11.95
2017-10-18T01:59:11.700Z,11.96
2017-10-18T02:01:40.170Z,11.96
2017-10-18T02:04:08.730Z,11.91
2017-10-18T02:06:37.311Z,11.90
2017-10-18T02:09:05.759Z,11.89
2017-10-18T02:11:35.002Z,11.88
2017-10-18T02:14:03.442Z,11.85
2017-10-18T02:16:32.674Z,11.85
2017-10-18T02:19:01.160Z,11.81
2017-10-18T02:21:29.605Z,11.78
2017-10-18T02:23:58.837Z,11.78
2017-10-18T02:26:27.293Z,11.75
2017-10-18T02:28:55.804Z,11.75
2017-10-18T02:31:24.278Z,11.76
2017-10-18T02:33:52.745Z,11.73
2017-10-18T02:36:21.208Z,11.72
2017-10-18T02:38:50.449Z,11.73
2017-10-18T02:41:18.933Z,11.73
2017-10-18T02:43:47.413Z,11.70
2017-10-18T02:46:15.891Z,11.70
2017-10-18T02:48:44.367Z,11.71
2017-10-18T02:51:12.809Z,11.73
2017-10-18T02:53:42.041Z,11.69
2017-10-18T02:56:10.486Z,11.71
2017-10-18T02:58:38.938Z,11.76
2017-10-18T03:01:07.499Z,11.80
2017-10-18T03:03:35.965Z,11.83
2017-10-18T03:06:04.473Z,11.86
2017-10-18T03:08:32.914Z,11.88
2017-10-18T03:11:02.151Z,11.91
2017-10-18T03:13:30.589Z,11.96
2017-10-18T03:15:59.934Z,12.01
2017-10-18T03:18:28.377Z,12.02
2017-10-18T03:20:57.595Z,12.04
2017-10-18T03:23:26.037Z,12.08
2017-10-18T03:25:54.510Z,12.04
2017-10-18T03:28:22.950Z,12.04
2017-10-18T03:30:51.436Z,12.05
2017-10-18T03:33:19.901Z,12.02
2017-10-18T03:35:48.343Z,12.00
2017-10-18T03:38:17.582Z,12.00
2017-10-18T03:40:46.025Z,11.97
2017-10-18T03:43:14.493Z,11.91
2017-10-18T03:45:43.051Z,11.90
2017-10-18T03:48:11.519Z,11.83
2017-10-18T03:50:39.977Z,11.82
2017-10-18T03:53:09.206Z,11.78
2017-10-18T03:55:37.658Z,11.70
2017-10-18T03:58:06.893Z,11.67
2017-10-18T04:00:35.343Z,11.66
2017-10-18T04:03:03.857Z,11.64
2017-10-18T04:05:32.433Z,11.61
2017-10-18T04:08:00.889Z,11.59
2017-10-18T04:10:30.227Z,11.53
2017-10-18T04:12:58.682Z,11.51
2017-10-18T04:15:27.194Z,11.50
2017-10-18T04:17:55.644Z,11.43
2017-10-18T04:20:24.114Z,11.44
2017-10-18T04:22:53.352Z,11.43
2017-10-18T04:25:21.918Z,11.39
2017-10-18T04:27:50.370Z,11.41
2017-10-18T04:30:19.718Z,11.38
2017-10-18T04:32:48.203Z,11.35
2017-10-18T04:35:16.669Z,11.33
2017-10-18T04:37:45.162Z,11.30
2017-10-18T04:40:13.614Z,11.27
2017-10-18T04:42:42.850Z,11.23
2017-10-18T04:45:11.288Z,11.25
2017-10-18T04:47:40.519Z,11.22
2017-10-18T04:50:09.004Z,11.18
2017-10-18T04:52:37.475Z,11.20
2017-10-18T04:55:05.922Z,11.18
2017-10-18T04:57:35.266Z,11.14
2017-10-18T05:00:03.711Z,11.16
2017-10-18T05:02:32.948Z,11.14
2017-10-18T05:05:01.393Z,11.13
2017-10-18T05:07:30.631Z,11.11
2017-10-18T05:09:59.097Z,11.13
2017-10-18T05:12:27.537Z,11.12
2017-10-18T05:14:56.005Z,11.13
2017-10-18T05:17:24.569Z,11.12
2017-10-18T05:19:53.038Z,11.09
2017-10-18T05:22:21.486Z,11.10
2017-10-18T05:24:50.833Z,11.10
2017-10-18T05:27:19.282Z,11.10
2017-10-18T05:29:47.785Z,11.09
2017-10-18T05:32:16.277Z,11.13
2017-10-18T05:34:44.746Z,11.14
2017-10-18T05:37:13.189Z,11.11
2017-10-18T05:39:42.421Z,11.13
2017-10-18T05:42:10.922Z,11.12
2017-10-18T05:44:39.370Z,11.12
2017-10-18T05:47:08.602Z,11.13
2017-10-18T05:49:37.053Z,11.12
2017-10-18T05:52:07.231Z,11.15
2017-10-18T05:54:35.668Z,11.13
2017-10-18T05:57:04.128Z,11.17
2017-10-18T05:59:33.340Z,11.20
2017-10-18T06:02:01.809Z,11.18
2017-10-18T06:04:31.016Z,11.22
2017-10-18T06:07:00.242Z,11.24
2017-10-18T06:09:28.721Z,11.21
2017-10-18T06:11:57.325Z,11.21
2017-10-18T06:14:25.767Z,11.22
2017-10-18T06:16:54.236Z,11.27
2017-10-18T06:19:23.458Z,11.29
2017-10-18T06:21:51.910Z,11.33
2017-10-18T06:24:21.145Z,11.34
2017-10-18T06:26:49.590Z,11.33
2017-10-18T06:29:18.817Z,11.35
2017-10-18T06:31:47.266Z,11.38
2017-10-18T06:34:15.733Z,11.41
2017-10-18T06:36:44.178Z,11.43
2017-10-18T06:39:12.648Z,11.50
2017-10-18T06:41:41.092Z,11.53
2017-10-18T06:44:09.553Z,11.55
2017-10-18T06:46:38.101Z,11.59
2017-10-18T06:49:06.587Z,11.62
2017-10-18T06:51:35.028Z,11.64
2017-10-18T06:54:04.379Z,11.69
2017-10-18T06:56:32.854Z,11.72
2017-10-18T06:59:01.299Z,11.75
2017-10-18T07:01:30.642Z,11.78
2017-10-18T07:03:59.084Z,11.81
2017-10-18T07:06:28.323Z,11.88
2017-10-18T07:08:56.812Z,11.94
2017-10-18T07:11:25.273Z,11.95
2017-10-18T07:13:53.723Z,12.02
2017-10-18T07:16:23.063Z,12.06
2017-10-18T07:18:51.509Z,12.10
2017-10-18T07:21:20.741Z,12.14
2017-10-18T07:23:49.187Z,12.20
2017-10-18T07:26:18.437Z,12.22
2017-10-18T07:28:46.913Z,12.26
2017-10-18T07:31:15.381Z,12.31
2017-10-18T07:33:43.879Z,12.37
2017-10-18T07:36:12.346Z,12.38
2017-10-18T07:38:40.842Z,12.45
2017-10-18T07:41:09.290Z,12.47
2017-10-18T07:43:38.518Z,12.58
2017-10-18T07:46:06.966Z,12.62
2017-10-18T07:48:36.298Z,12.72
2017-10-18T07:51:04.745Z,12.74
2017-10-18T07:53:33.977Z,12.73
2017-10-18T07:56:02.468Z,12.77
2017-10-18T07:58:31.042Z,12.78
2017-10-18T08:00:59.486Z,12.90
2017-10-18T08:03:28.721Z,12.99
2017-10-18T08:05:57.210Z,12.98
2017-10-18T08:08:25.697Z,12.98
2017-10-18T08:10:54.143Z,12.93
2017-10-18T08:13:22.664Z,12.90
2017-10-18T08:15:51.115Z,12.89
2017-10-18T08:18:19.609Z,13.01
2017-10-18T08:20:48.079Z,13.01
2017-10-18T08:23:16.526Z,13.15
2017-10-18T08:25:44.989Z,13.14
2017-10-18T08:28:13.425Z,13.21
2017-10-18T08:30:41.893Z,13.21
2017-10-18T08:33:11.131Z,13.23
2017-10-18T08:35:39.614Z,13.32
2017-10-18T08:38:08.058Z,13.34
2017-10-18T08:40:37.288Z,13.42
2017-10-18T08:43:05.728Z,13.40
2017-10-18T08:45:34.959Z,13.54
2017-10-18T08:48:03.458Z,13.59
2017-10-18T08:50:32.032Z,13.73
2017-10-18T08:53:00.473Z,13.74
2017-10-18T08:55:29.710Z,13.82
2017-10-18T08:57:58.571Z,13.88
2017-10-18T09:00:27.814Z,13.88
2017-10-18T09:02:56.274Z,13.83
2017-10-18T09:05:24.713Z,14.00
2017-10-18T09:07:53.260Z,14.09
2017-10-18T09:10:21.719Z,14.17
2017-10-18T09:12:50.218Z,14.09
2017-10-18T09:15:18.657Z,14.19
2017-10-18T09:17:47.885Z,14.19
2017-10-18T09:20:16.388Z,14.24
2017-10-18T09:22:44.971Z,14.38
2017-10-18T09:25:13.447Z,14.51
2017-10-18T09:27:41.913Z,14.66
2017-10-18T09:30:10.363Z,14.61
2017-10-18T09:32:39.630Z,14.83
2017-10-18T09:35:08.089Z,14.85
2017-10-18T09:37:36.581Z,14.85
2017-10-18T09:40:05.047Z,14.99
2017-10-18T09:42:33.484Z,15.16
2017-10-18T09:45:01.945Z,15.17
2017-10-18T09:47:30.386Z,15.15
2017-10-18T09:49:58.850Z,15.23
2017-10-18T09:52:28.057Z,15.15
2017-10-18T09:54:56.563Z,15.23
2017-10-18T09:57:25.050Z,15.19
2017-10-18T09:59:53.522Z,15.19
2017-10-18T10:02:21.978Z,15.27
2017-10-18T10:04:51.310Z,15.29
2017-10-18T10:07:19.794Z,15.37
2017-10-18T10:09:48.291Z,15.51
2017-10-18T10:12:16.733Z,15.61
2017-10-18T10:14:45.169Z,15.54
2017-10-18T10:17:13.638Z,15.45
2017-10-18T10:19:42.087Z,15.38
2017-10-18T10:22:10.590Z,15.50
2017-10-18T10:24:39.069Z,15.38
2017-10-18T10:27:07.532Z,15.31
2017-10-18T10:29:36.028Z,15.32
2017-10-18T10:32:04.497Z,15.46
2017-10-18T10:34:32.942Z,15.55
2017-10-18T10:37:01.412Z,15.29
2017-10-18T10:39:29.859Z,15.45
2017-10-18T10:41:58.331Z,15.58
2017-10-18T10:44:26.931Z,15.77
2017-10-18T10:46:55.394Z,15.71
2017-10-18T10:49:23.838Z,15.61
2017-10-18T10:51:54.005Z,15.68
2017-10-18T10:54:22.493Z,15.81
2017-10-18T10:56:50.970Z,15.73
2017-10-18T10:59:19.410Z,15.77
2017-10-18T11:01:49.615Z,15.81
2017-10-18T11:04:18.061Z,15.87
2017-10-18T11:06:46.535Z,15.83
2017-10-18T11:09:14.973Z,16.03
2017-10-18T11:11:44.181Z,16.08
2017-10-18T11:14:13.404Z,16.14
2017-10-18T11:16:41.838Z,16.15
2017-10-18T11:19:10.292Z,16.18
2017-10-18T11:21:38.733Z,16.27
2017-10-18T11:24:08.057Z,16.16
2017-10-18T11:26:36.493Z,16.21
2017-10-18T11:29:04.953Z,16.17
2017-10-18T11:31:33.512Z,16.34
2017-10-18T11:34:01.988Z,16.38
2017-10-18T11:36:30.430Z,16.33
2017-10-18T11:38:59.772Z,16.34
2017-10-18T11:41:28.362Z,16.56
2017-10-18T11:43:56.846Z,16.43
2017-10-18T11:46:25.320Z,16.53
2017-10-18T11:48:53.911Z,16.49
2017-10-18T11:51:23.122Z,16.49
2017-10-18T11:53:51.689Z,16.69
2017-10-18T11:56:20.133Z,16.68
2017-10-18T11:58:49.470Z,16.79
2017-10-18T12:01:17.916Z,16.62
2017-10-18T12:03:47.118Z,16.58
2017-10-18T12:06:16.345Z,16.60
2017-10-18T12:08:44.834Z,16.69
2017-10-18T12:11:13.381Z,16.84
2017-10-18T12:13:42.588Z,16.81
2017-10-18T12:16:12.027Z,16.62
2017-10-18T12:18:40.465Z,16.78
2017-10-18T12:21:09.689Z,16.81
2017-10-18T12:23:38.191Z,16.87
2017-10-18T12:26:06.650Z,16.93
2017-10-18T12:28:35.148Z,16.86
2017-10-18T12:31:03.610Z,17.03
2017-10-18T12:33:32.062Z,17.19
2017-10-18T12:36:00.632Z,17.23
2017-10-18T12:38:29.075Z,17.00
2017-10-18T12:40:57.660Z,17.01
2017-10-18T12:43:26.143Z,17.06
2017-10-18T12:45:54.619Z,17.16
2017-10-18T12:48:23.092Z,16.94
2017-10-18T12:50:51.566Z,16.80
2017-10-18T12:53:20.006Z,16.91
2017-10-18T12:55:48.450Z,16.86
2017-10-18T12:58:16.918Z,16.90
2017-10-18T13:00:45.357Z,16.95
2017-10-18T13:03:13.816Z,17.06
2017-10-18T13:05:42.252Z,17.15
2017-10-18T13:08:10.726Z,17.19
2017-10-18T13:10:39.941Z,17.12
2017-10-18T13:13:08.401Z,17.00
2017-10-18T13:15:37.605Z,16.96
2017-10-18T13:18:06.835Z,17.05
2017-10-18T13:20:35.280Z,16.97
2017-10-18T13:23:04.510Z,16.85
2017-10-18T13:25:33.005Z,16.77
2017-10-18T13:28:02.102Z,16.79
2017-10-18T13:30:30.573Z,16.81
2017-10-18T13:32:59.270Z,16.75
2017-10-18T13:35:27.752Z,16.70
2017-10-18T13:37:56.233Z,16.74
2017-10-18T13:40:24.698Z,16.79
2017-10-18T13:42:53.148Z,16.78
2017-10-18T13:45:22.377Z,16.81
2017-10-18T13:47:50.878Z,16.82
2017-10-18T13:50:19.337Z,16.53
2017-10-18T13:52:47.774Z,16.52
2017-10-18T13:55:16.237Z,16.62
2017-10-18T13:57:44.678Z,16.48
2017-10-18T14:00:13.141Z,16.51
2017-10-18T14:02:42.355Z,16.57
2017-10-18T14:05:10.974Z,16.58
2017-10-18T14:07:39.450Z,16.61
2017-10-18T14:10:07.910Z,16.53
2017-10-18T14:12:36.355Z,16.53
2017-10-18T14:15:04.891Z,16.38
2017-10-18T14:17:33.338Z,16.55
2017-10-18T14:20:02.681Z,16.28
2017-10-18T14:22:31.139Z,16.10
2017-10-18T14:24:59.646Z,16.11
2017-10-18T14:27:28.128Z,16.26
2017-10-18T14:29:56.589Z,16.27
2017-10-18T14:32:25.087Z,16.02
2017-10-18T14:34:53.526Z,16.13
2017-10-18T14:37:22.753Z,16.02
2017-10-18T14:39:51.255Z,15.98
2017-10-18T14:42:19.717Z,15.95
2017-10-18T14:44:48.162Z,16.03
2017-10-18T14:47:17.410Z,15.82
2017-10-18T14:49:45.888Z,15.81
2017-10-18T14:52:14.348Z,15.64
2017-10-18T14:54:43.549Z,15.73
2017-10-18T14:57:12.010Z,15.76
2017-10-18T14:59:41.262Z,15.60
2017-10-18T15:02:09.722Z,15.57
2017-10-18T15:04:38.181Z,15.57
2017-10-18T15:07:07.405Z,15.52
2017-10-18T15:09:35.853Z,15.56
2017-10-18T15:12:05.088Z,15.50
2017-10-18T15:14:33.597Z,15.44
2017-10-18T15:17:02.076Z,15.46
2017-10-18T15:19:30.529Z,15.44
2017-10-18T15:21:59.017Z,15.43
2017-10-18T15:24:27.461Z,15.30
2017-10-18T15:26:56.671Z,15.25
2017-10-18T15:29:25.897Z,15.21
2017-10-18T15:31:54.342Z,15.10
2017-10-18T15:34:23.573Z,15.05
2017-10-18T15:36:52.019Z,15.00
2017-10-18T15:39:36.532Z,14.99
2017-10-18T15:42:05.801Z,14.96
2017-10-18T15:44:35.129Z,14.83
2017-10-18T15:47:04.433Z,14.78
2017-10-18T15:49:32.893Z,14.76
2017-10-18T15:52:01.333Z,14.72
2017-10-18T15:54:29.806Z,14.68
2017-10-18T15:56:58.353Z,14.65
2017-10-18T15:59:26.827Z,14.51
2017-10-18T16:01:55.267Z,14.39
2017-10-18T16:04:23.729Z,14.38
2017-10-18T16:06:52.181Z,14.41
2017-10-18T16:09:20.665Z,14.39
2017-10-18T16:11:49.105Z,14.32
2017-10-18T16:14:18.446Z,14.26
2017-10-18T16:16:46.893Z,14.23
2017-10-18T16:19:16.110Z,14.10
2017-10-18T16:21:44.574Z,14.08
2017-10-18T16:24:13.789Z,14.02
2017-10-18T16:26:42.291Z,14.04
2017-10-18T16:29:10.734Z,13.97
2017-10-18T16:31:39.961Z,13.93
2017-10-18T16:34:08.405Z,13.81
2017-10-18T16:36:36.935Z,13.75
2017-10-18T16:39:05.380Z,13.74
2017-10-18T16:41:33.867Z,13.64
2017-10-18T16:44:03.069Z,13.63
2017-10-18T16:46:32.404Z,13.64
2017-10-18T16:49:00.851Z,13.71
2017-10-18T16:51:30.086Z,13.64
2017-10-18T16:53:58.568Z,13.66
2017-10-18T16:56:27.151Z,13.63
2017-10-18T16:58:55.597Z,13.66
2017-10-18T17:01:24.811Z,13.64
2017-10-18T17:03:53.309Z,13.54
2017-10-18T17:06:21.758Z,13.48
2017-10-18T17:08:50.991Z,13.41
2017-10-18T17:11:19.469Z,13.30
2017-10-18T17:13:47.945Z,13.23
2017-10-18T17:16:16.396Z,13.26
2017-10-18T17:18:45.625Z,13.17
2017-10-18T17:21:14.081Z,13.10
2017-10-18T17:23:43.419Z,13.06
2017-10-18T17:26:11.901Z,13.01
2017-10-18T17:28:40.490Z,13.01
2017-10-18T17:31:08.929Z,12.99
2017-10-18T17:33:38.166Z,12.94
2017-10-18T17:36:06.613Z,12.83
2017-10-18T17:38:35.875Z,12.80
2017-10-18T17:41:04.438Z,12.81
2017-10-18T17:43:32.886Z,12.86
2017-10-18T17:46:02.122Z,12.82
2017-10-18T17:48:30.587Z,12.86
2017-10-18T17:50:59.069Z,12.78
2017-10-18T17:53:27.565Z,12.71
2017-10-18T17:55:56.034Z,12.71
2017-10-18T17:58:24.485Z,12.74
2017-10-18T18:00:53.714Z,12.74
2017-10-18T18:03:22.210Z,12.78
2017-10-18T18:05:50.694Z,12.75
2017-10-18T18:08:19.137Z,12.74
2017-10-18T18:10:48.474Z,12.78
2017-10-18T18:13:16.917Z,12.74
2017-10-18T18:15:46.253Z,12.67
2017-10-18T18:18:14.706Z,12.65
2017-10-18T18:20:43.965Z,12.67
2017-10-18T18:23:12.410Z,12.68
2017-10-18T18:25:40.865Z,12.69
2017-10-18T18:28:10.095Z,12.71
2017-10-18T18:30:38.537Z,12.72
2017-10-18T18:33:07.770Z,12.73
2017-10-18T18:35:36.210Z,12.73
2017-10-18T18:38:05.451Z,12.72
2017-10-18T18:40:33.898Z,12.77
2017-10-18T18:43:03.144Z,12.71
2017-10-18T18:45:31.585Z,12.68
2017-10-18T18:48:00.819Z,12.69
2017-10-18T18:50:29.258Z,12.59
2017-10-18T18:52:58.494Z,12.50
2017-10-18T18:55:26.954Z,12.44
2017-10-18T18:57:56.192Z,12.46
2017-10-18T19:00:24.668Z,12.44
2017-10-18T19:02:53.129Z,12.42
2017-10-18T19:05:21.584Z,12.41
2017-10-18T19:07:50.813Z,12.38
2017-10-18T19:10:19.260Z,12.36
2017-10-18T19:12:48.512Z,12.37
2017-10-18T19:15:16.953Z,12.32
2017-10-18T19:17:46.181Z,12.28
2017-10-18T19:20:14.621Z,12.22
2017-10-18T19:22:43.868Z,12.18
2017-10-18T19:25:12.322Z,12.20
2017-10-18T19:27:41.549Z,12.23
2017-10-18T19:30:10.035Z,12.23
2017-10-18T19:32:38.519Z,12.28
2017-10-18T19:35:06.985Z,12.25
2017-10-18T19:37:35.430Z,12.26
2017-10-18T19:40:04.665Z,12.29
2017-10-18T19:42:33.165Z,12.28
2017-10-18T19:45:01.747Z,12.28
2017-10-18T19:47:30.189Z,12.33
2017-10-18T19:49:59.428Z,12.35
2017-10-18T19:52:27.870Z,12.42
2017-10-18T19:54:57.211Z,12.46
2017-10-18T19:57:25.649Z,12.44
2017-10-18T19:59:54.882Z,12.42
2017-10-18T20:02:23.365Z,12.43
2017-10-18T20:04:51.878Z,12.44
2017-10-18T20:07:20.326Z,12.44
2017-10-18T20:09:48.820Z,12.47
2017-10-18T20:12:17.285Z,12.50
2017-10-18T20:14:45.731Z,12.51
2017-10-18T20:17:14.965Z,12.50
2017-10-18T20:19:43.413Z,12.53
2017-10-18T20:22:12.651Z,12.46
2017-10-18T20:24:41.141Z,12.50
2017-10-18T20:27:09.633Z,12.52
2017-10-18T20:29:38.110Z,12.43
2017-10-18T20:32:06.573Z,12.44
2017-10-18T20:34:35.008Z,12.41
2017-10-18T20:37:03.483Z,12.40
2017-10-18T20:39:31.936Z,12.37
2017-10-18T20:42:00.442Z,12.32
2017-10-18T20:44:28.884Z,12.35
2017-10-18T20:46:57.373Z,12.24
2017-10-18T20:49:25.864Z,12.25
2017-10-18T20:51:54.309Z,12.20
2017-10-18T20:54:23.639Z,12.20
2017-10-18T20:56:52.089Z,12.22
2017-10-18T20:59:21.323Z,12.19
2017-10-18T21:01:49.800Z,12.08
2017-10-18T21:04:18.265Z,12.08
2017-10-18T21:06:46.710Z,12.08
2017-10-18T21:09:15.189Z,12.01
2017-10-18T21:11:43.637Z,11.99
2017-10-18T21:14:12.215Z,11.98
2017-10-18T21:16:40.702Z,11.94
2017-10-18T21:19:09.165Z,11.97
2017-10-18T21:21:37.657Z,11.97
2017-10-18T21:24:06.137Z,11.95
2017-10-18T21:26:34.583Z,11.87
2017-10-18T21:29:03.809Z,11.86
2017-10-18T21:31:32.262Z,11.80
2017-10-18T21:34:01.487Z,11.80
2017-10-18T21:36:29.934Z,11.73
2017-10-18T21:38:58.400Z,11.61
2017-10-18T21:41:26.910Z,11.57
2017-10-18T21:43:56.104Z,11.60
2017-10-18T21:46:25.560Z,11.59
2017-10-18T21:48:54.010Z,11.62
2017-10-18T21:51:23.332Z,11.64
2017-10-18T21:53:51.828Z,11.69
2017-10-18T21:56:20.300Z,11.72
2017-10-18T21:58:48.752Z,11.78
2017-10-18T22:01:17.976Z,11.86
2017-10-18T22:03:46.419Z,11.86
2017-10-18T22:06:15.663Z,11.93
2017-10-18T22:08:44.154Z,11.88
2017-10-18T22:11:12.734Z,11.85
2017-10-18T22:13:41.212Z,11.82
2017-10-18T22:16:09.680Z,11.79
2017-10-18T22:18:38.118Z,11.79
2017-10-18T22:21:06.613Z,11.83
2017-10-18T22:23:35.822Z,11.77
2017-10-18T22:26:05.062Z,11.78
2017-10-18T22:28:33.529Z,11.73
2017-10-18T22:31:01.966Z,11.76
2017-10-18T22:33:31.205Z,11.79
2017-10-18T22:35:59.646Z,11.77
2017-10-18T22:38:28.182Z,11.80
2017-10-18T22:40:56.629Z,11.79
2017-10-18T22:43:25.868Z,11.79
2017-10-18T22:45:54.318Z,11.78
2017-10-18T22:48:23.550Z,11.73
2017-10-18T22:50:51.997Z,11.66
2017-10-18T22:53:21.332Z,11.60
2017-10-18T22:55:49.811Z,11.58
2017-10-18T22:58:18.340Z,11.52
2017-10-18T23:00:46.880Z,11.50
2017-10-18T23:03:15.364Z,11.45
2017-10-18T23:05:43.838Z,11.44
2017-10-18T23:08:12.327Z,11.37
2017-10-18T23:10:40.900Z,11.39
2017-10-18T23:13:09.344Z,11.41
2017-10-18T23:15:38.695Z,11.46
2017-10-18T23:18:07.177Z,11.50
2017-10-18T23:20:35.645Z,11.52
2017-10-18T23:23:04.101Z,11.49
2017-10-18T23:25:32.586Z,11.56
2017-10-18T23:28:01.798Z,11.58
2017-10-18T23:30:30.304Z,11.55
2017-10-18T23:32:58.777Z,11.59
2017-10-18T23:35:27.263Z,11.63
2017-10-18T23:37:55.708Z,11.66
2017-10-18T23:40:24.948Z,11.69
2017-10-18T23:42:53.398Z,11.73
2017-10-18T23:45:22.634Z,11.73
2017-10-18T23:47:51.076Z,11.71
2017-10-18T23:50:20.406Z,11.71
2017-10-18T23:52:54.195Z,11.73
2017-10-18T23:55:22.657Z,11.79
2017-10-18T23:57:51.868Z,11.86
